Time,TemperatureF,DewpointF,PressureIn,WindDirection,WindDirectionDegrees,WindSpeedMPH,WindSpeedGustMPH,Humidity,HourlyPrecipIn,Conditions,Clouds,dailyrainin,SoftwareType,DateUTC
2018-02-24 00:04:00,41.1,32.1,30.26,ESE,113,0.0,0.0,70,0.00,,,0.00,Wunderground v.1.15,2018-02-24 08:04:00,
2018-02-24 00:14:00,40.6,31.6,30.26,ESE,113,0.0,0.0,70,0.00,,,0.00,Wunderground v.1.15,2018-02-24 08:14:00,
2018-02-24 00:24:00,40.2,31.5,30.26,SE,137,0.0,0.0,71,0.00,,,0.00,Wunderground v.1.15,2018-02-24 08:24:00,
2018-02-24 00:34:00,39.6,31.0,30.27,SE,137,0.0,0.0,71,0.00,,,0.00,Wunderground v.1.15,2018-02-24 08:34:00,
2018-02-24 00:44:00,39.0,30.7,30.27,SE,135,0.0,0.0,72,0.00,,,0.00,Wunderground v.1.15,2018-02-24 08:44:00,
2018-02-24 00:54:00,38.5,30.3,30.27,SE,135,0.0,0.0,72,0.00,,,0.00,Wunderground v.1.15,2018-02-24 08:54:00,
2018-02-24 01:04:00,38.3,30.4,30.27,SE,135,0.0,0.0,73,0.00,,,0.00,Wunderground v.1.15,2018-02-24 09:04:00,
2018-02-24 01:14:00,38.2,30.6,30.27,SE,135,0.0,0.0,74,0.00,,,0.00,Wunderground v.1.15,2018-02-24 09:14:00,
2018-02-24 01:24:00,37.9,30.4,30.28,ESE,111,0.0,0.0,74,0.00,,,0.00,Wunderground v.1.15,2018-02-24 09:24:00,
2018-02-24 01:34:00,37.7,30.2,30.28,ESE,109,1.0,3.0,74,0.00,,,0.00,Wunderground v.1.15,2018-02-24 09:34:00,
2018-02-24 01:44:00,37.8,29.9,30.28,East,83,0.0,0.0,73,0.00,,,0.00,Wunderground v.1.15,2018-02-24 09:44:00,
2018-02-24 01:54:00,37.9,30.0,30.27,ESE,105,1.0,2.0,73,0.00,,,0.00,Wunderground v.1.15,2018-02-24 09:54:00,
2018-02-24 02:04:00,38.1,29.9,30.27,ESE,105,1.0,2.0,72,0.00,,,0.00,Wunderground v.1.15,2018-02-24 10:04:00,
2018-02-24 02:14:00,37.9,29.7,30.27,ESE,109,1.0,1.0,72,0.00,,,0.00,Wunderground v.1.15,2018-02-24 10:14:00,
2018-02-24 02:24:00,37.6,29.4,30.27,ESE,103,0.0,0.0,72,0.00,,,0.00,Wunderground v.1.15,2018-02-24 10:24:00,
2018-02-24 02:34:00,37.4,29.2,30.27,ESE,104,0.0,0.0,72,0.00,,,0.00,Wunderground v.1.15,2018-02-24 10:34:00,
2018-02-24 02:44:00,37.4,29.2,30.27,East,101,0.0,0.0,72,0.00,,,0.00,Wunderground v.1.15,2018-02-24 10:44:00,
2018-02-24 02:54:00,37.1,28.9,30.27,East,101,0.0,0.0,72,0.00,,,0.00,Wunderground v.1.15,2018-02-24 10:54:00,
2018-02-24 03:04:00,37.0,28.8,30.27,East,101,0.0,0.0,72,0.00,,,0.00,Wunderground v.1.15,2018-02-24 11:04:00,
2018-02-24 03:14:00,36.6,28.4,30.27,ESE,117,0.0,0.0,72,0.00,,,0.00,Wunderground v.1.15,2018-02-24 11:14:00,
2018-02-24 03:24:00,36.1,28.3,30.27,ESE,117,0.0,0.0,73,0.00,,,0.00,Wunderground v.1.15,2018-02-24 11:24:00,
2018-02-24 03:34:00,35.7,27.9,30.26,ESE,117,0.0,0.0,73,0.00,,,0.00,Wunderground v.1.15,2018-02-24 11:34:00,
2018-02-24 03:44:00,35.6,28.1,30.26,ESE,117,0.0,0.0,74,0.00,,,0.00,Wunderground v.1.15,2018-02-24 11:44:00,
2018-02-24 03:54:00,36.1,28.3,30.27,ESE,117,0.0,0.0,73,0.00,,,0.00,Wunderground v.1.15,2018-02-24 11:54:00,
2018-02-24 04:04:00,36.3,28.1,30.27,ESE,117,0.0,0.0,72,0.00,,,0.00,Wunderground v.1.15,2018-02-24 12:04:00,
2018-02-24 04:14:00,36.2,27.7,30.27,ESE,110,0.0,0.0,71,0.00,,,0.00,Wunderground v.1.15,2018-02-24 12:14:00,
2018-02-24 04:24:00,35.8,27.7,30.28,ESE,110,0.0,0.0,72,0.00,,,0.00,Wunderground v.1.15,2018-02-24 12:24:00,
2018-02-24 04:34:00,35.6,27.5,30.29,ESE,111,0.0,0.0,72,0.00,,,0.00,Wunderground v.1.15,2018-02-24 12:34:00,
2018-02-24 04:44:00,34.8,27.0,30.29,ESE,119,1.0,2.0,73,0.00,,,0.00,Wunderground v.1.15,2018-02-24 12:44:00,
2018-02-24 04:54:00,34.0,26.6,30.29,ESE,119,0.0,0.0,74,0.00,,,0.00,Wunderground v.1.15,2018-02-24 12:54:00,
2018-02-24 05:04:00,33.8,26.7,30.29,ESE,119,0.0,0.0,75,0.00,,,0.00,Wunderground v.1.15,2018-02-24 13:04:00,
2018-02-24 05:14:00,33.8,26.7,30.29,ESE,119,0.0,0.0,75,0.00,,,0.00,Wunderground v.1.15,2018-02-24 13:14:00,
2018-02-24 05:24:00,34.1,27.0,30.29,ESE,119,0.0,0.0,75,0.00,,,0.00,Wunderground v.1.15,2018-02-24 13:24:00,
2018-02-24 05:34:00,34.2,26.8,30.30,ESE,103,0.0,0.0,74,0.00,,,0.00,Wunderground v.1.15,2018-02-24 13:34:00,
2018-02-24 05:44:00,34.1,26.3,30.30,ESE,103,0.0,0.0,73,0.00,,,0.00,Wunderground v.1.15,2018-02-24 13:44:00,
2018-02-24 05:54:00,34.2,26.1,30.30,ESE,107,0.0,0.0,72,0.00,,,0.00,Wunderground v.1.15,2018-02-24 13:54:00,
2018-02-24 06:04:00,34.2,26.4,30.30,ESE,107,0.0,0.0,73,0.00,,,0.00,Wunderground v.1.15,2018-02-24 14:04:00,
2018-02-24 06:14:00,34.4,26.0,30.30,ESE,107,0.0,0.0,71,0.00,,,0.00,Wunderground v.1.15,2018-02-24 14:14:00,
2018-02-24 06:24:00,34.3,25.9,30.30,ESE,107,0.0,0.0,71,0.00,,,0.00,Wunderground v.1.15,2018-02-24 14:24:00,
2018-02-24 06:34:00,34.3,25.9,30.30,ESE,107,0.0,0.0,71,0.00,,,0.00,Wunderground v.1.15,2018-02-24 14:34:00,
2018-02-24 06:44:00,34.0,25.6,30.30,ESE,107,0.0,0.0,71,0.00,,,0.00,Wunderground v.1.15,2018-02-24 14:44:00,
2018-02-24 06:54:00,34.4,26.3,30.30,ESE,107,0.0,0.0,72,0.00,,,0.00,Wunderground v.1.15,2018-02-24 14:54:00,
2018-02-24 07:04:00,36.2,27.4,30.31,ESE,107,0.0,0.0,70,0.00,,,0.00,Wunderground v.1.15,2018-02-24 15:04:00,
2018-02-24 07:14:00,37.8,27.8,30.31,ESE,107,0.0,0.0,67,0.00,,,0.00,Wunderground v.1.15,2018-02-24 15:14:00,
2018-02-24 07:24:00,39.7,28.9,30.31,ESE,107,0.0,0.0,65,0.00,,,0.00,Wunderground v.1.15,2018-02-24 15:24:00,
2018-02-24 07:34:00,41.5,29.4,30.33,ESE,107,0.0,0.0,62,0.00,,,0.00,Wunderground v.1.15,2018-02-24 15:34:00,
2018-02-24 07:44:00,44.0,29.7,30.33,ESE,107,0.0,0.0,57,0.00,,,0.00,Wunderground v.1.15,2018-02-24 15:44:00,
2018-02-24 07:54:00,45.5,28.4,30.33,ESE,110,0.0,0.0,51,0.00,,,0.00,Wunderground v.1.15,2018-02-24 15:54:00,
2018-02-24 08:04:00,47.2,28.0,30.33,SE,134,0.0,0.0,47,0.00,,,0.00,Wunderground v.1.15,2018-02-24 16:04:00,
2018-02-24 08:14:00,48.9,27.4,30.33,SE,132,0.0,0.0,43,0.00,,,0.00,Wunderground v.1.15,2018-02-24 16:14:00,
2018-02-24 08:24:00,50.3,26.9,30.33,ESE,116,0.0,0.0,40,0.00,,,0.00,Wunderground v.1.15,2018-02-24 16:24:00,
2018-02-24 08:34:00,51.9,25.1,30.33,ESE,102,2.0,2.0,35,0.00,,,0.00,Wunderground v.1.15,2018-02-24 16:34:00,
2018-02-24 08:44:00,52.6,25.0,30.33,ESE,103,2.0,5.0,34,0.00,,,0.00,Wunderground v.1.15,2018-02-24 16:44:00,
2018-02-24 08:54:00,53.6,23.7,30.33,East,100,2.0,5.0,31,0.00,,,0.00,Wunderground v.1.15,2018-02-24 16:54:00,
2018-02-24 09:04:00,53.7,24.5,30.33,ESE,105,2.0,2.0,32,0.00,,,0.00,Wunderground v.1.15,2018-02-24 17:04:00,
2018-02-24 09:14:00,54.2,25.7,30.33,West,279,1.0,1.0,33,0.00,,,0.00,Wunderground v.1.15,2018-02-24 17:14:00,
2018-02-24 09:24:00,55.2,25.8,30.33,South,185,1.0,1.0,32,0.00,,,0.00,Wunderground v.1.15,2018-02-24 17:24:00,
2018-02-24 09:34:00,55.5,31.5,30.33,WSW,238,1.0,5.0,40,0.00,,,0.00,Wunderground v.1.15,2018-02-24 17:34:00,
2018-02-24 09:44:00,55.0,34.0,30.33,WNW,296,3.0,5.0,45,0.00,,,0.00,Wunderground v.1.15,2018-02-24 17:44:00,
2018-02-24 09:54:00,54.3,32.8,30.32,SW,222,3.0,3.0,44,0.00,,,0.00,Wunderground v.1.15,2018-02-24 17:54:00,
2018-02-24 10:04:00,54.4,34.0,30.32,WNW,284,3.0,3.0,46,0.00,,,0.00,Wunderground v.1.15,2018-02-24 18:04:00,
2018-02-24 10:14:00,54.6,36.3,30.32,WSW,250,4.0,4.0,50,0.00,,,0.00,Wunderground v.1.15,2018-02-24 18:14:00,
2018-02-24 10:24:00,54.9,35.6,30.31,West,270,3.0,5.0,48,0.00,,,0.00,Wunderground v.1.15,2018-02-24 18:24:00,
2018-02-24 10:34:00,54.8,37.5,30.31,WSW,245,4.0,5.0,52,0.00,,,0.00,Wunderground v.1.15,2018-02-24 18:34:00,
2018-02-24 10:44:00,55.1,38.7,30.31,WNW,298,4.0,5.0,54,0.00,,,0.00,Wunderground v.1.15,2018-02-24 18:44:00,
2018-02-24 10:54:00,55.1,39.2,30.31,West,273,4.0,4.0,55,0.00,,,0.00,Wunderground v.1.15,2018-02-24 18:54:00,
2018-02-24 11:04:00,54.9,39.5,30.30,WNW,286,5.0,5.0,56,0.00,,,0.00,Wunderground v.1.15,2018-02-24 19:04:00,
2018-02-24 11:14:00,55.6,38.7,30.30,West,273,5.0,5.0,53,0.00,,,0.00,Wunderground v.1.15,2018-02-24 19:14:00,
2018-02-24 11:24:00,55.7,38.3,30.30,West,270,5.0,7.0,52,0.00,,,0.00,Wunderground v.1.15,2018-02-24 19:24:00,
2018-02-24 11:34:00,55.6,36.2,30.28,WNW,302,6.0,6.0,48,0.00,,,0.00,Wunderground v.1.15,2018-02-24 19:34:00,
2018-02-24 11:44:00,55.9,37.5,30.28,NW,309,5.0,5.0,50,0.00,,,0.00,Wunderground v.1.15,2018-02-24 19:44:00,
2018-02-24 11:54:00,56.0,35.5,30.27,WNW,290,6.0,6.0,46,0.00,,,0.00,Wunderground v.1.15,2018-02-24 19:54:00,
2018-02-24 12:04:00,56.0,36.6,30.26,NW,309,6.0,7.0,48,0.00,,,0.00,Wunderground v.1.15,2018-02-24 20:04:00,
2018-02-24 12:14:00,56.4,35.9,30.26,WNW,292,5.0,6.0,46,0.00,,,0.00,Wunderground v.1.15,2018-02-24 20:14:00,
2018-02-24 12:24:00,55.9,34.8,30.25,West,268,6.0,7.0,45,0.00,,,0.00,Wunderground v.1.15,2018-02-24 20:24:00,
2018-02-24 12:34:00,56.3,32.9,30.25,West,269,5.0,5.0,41,0.00,,,0.00,Wunderground v.1.15,2018-02-24 20:34:00,
2018-02-24 12:44:00,56.7,35.0,30.25,WSW,251,5.0,9.0,44,0.00,,,0.00,Wunderground v.1.15,2018-02-24 20:44:00,
2018-02-24 12:54:00,56.7,35.0,30.24,WNW,287,6.0,6.0,44,0.00,,,0.00,Wunderground v.1.15,2018-02-24 20:54:00,
2018-02-24 13:14:00,56.7,34.4,30.23,West,269,6.0,6.0,43,0.00,,,0.00,Wunderground v.1.15,2018-02-24 21:14:00,
2018-02-24 13:24:00,56.8,35.1,30.22,WNW,291,6.0,7.0,44,0.00,,,0.00,Wunderground v.1.15,2018-02-24 21:24:00,
2018-02-24 13:34:00,57.7,34.7,30.22,West,279,6.0,6.0,42,0.00,,,0.00,Wunderground v.1.15,2018-02-24 21:34:00,
2018-02-24 13:44:00,57.3,33.8,30.22,West,276,7.0,10.0,41,0.00,,,0.00,Wunderground v.1.15,2018-02-24 21:44:00,
2018-02-24 13:54:00,57.2,34.3,30.22,WSW,252,7.0,7.0,42,0.00,,,0.00,Wunderground v.1.15,2018-02-24 21:54:00,
2018-02-24 14:04:00,57.3,34.4,30.21,NW,313,7.0,8.0,42,0.00,,,0.00,Wunderground v.1.15,2018-02-24 22:04:00,
2018-02-24 14:14:00,57.4,34.5,30.21,West,274,7.0,7.0,42,0.00,,,0.00,Wunderground v.1.15,2018-02-24 22:14:00,
2018-02-24 14:24:00,57.5,34.0,30.20,NNW,343,6.0,9.0,41,0.00,,,0.00,Wunderground v.1.15,2018-02-24 22:24:00,
2018-02-24 14:34:00,57.6,34.7,30.20,West,271,5.0,5.0,42,0.00,,,0.00,Wunderground v.1.15,2018-02-24 22:34:00,
2018-02-24 14:44:00,57.3,36.7,30.20,NW,313,6.0,6.0,46,0.00,,,0.00,Wunderground v.1.15,2018-02-24 22:44:00,
2018-02-24 14:54:00,56.9,38.4,30.20,WSW,252,6.0,6.0,50,0.00,,,0.00,Wunderground v.1.15,2018-02-24 22:54:00,
2018-02-24 15:04:00,57.0,39.0,30.20,WNW,299,6.0,8.0,51,0.00,,,0.00,Wunderground v.1.15,2018-02-24 23:04:00,
2018-02-24 15:14:00,56.9,39.9,30.20,WNW,292,6.0,8.0,53,0.00,,,0.00,Wunderground v.1.15,2018-02-24 23:14:00,
2018-02-24 15:24:00,56.9,38.9,30.19,WNW,288,6.0,6.0,51,0.00,,,0.00,Wunderground v.1.15,2018-02-24 23:24:00,
2018-02-24 15:34:00,56.7,38.8,30.19,SW,229,6.0,7.0,51,0.00,,,0.00,Wunderground v.1.15,2018-02-24 23:34:00,
2018-02-24 15:44:00,56.6,39.2,30.19,West,279,6.0,6.0,52,0.00,,,0.00,Wunderground v.1.15,2018-02-24 23:44:00,
2018-02-24 15:54:00,56.7,39.3,30.19,West,263,5.0,9.0,52,0.00,,,0.00,Wunderground v.1.15,2018-02-24 23:54:00,
2018-02-24 16:04:00,56.3,38.9,30.19,WNW,290,6.0,6.0,52,0.00,,,0.00,Wunderground v.1.15,2018-02-25 00:04:00,
2018-02-24 16:14:00,56.4,39.5,30.19,NW,322,6.0,6.0,53,0.00,,,0.00,Wunderground v.1.15,2018-02-25 00:14:00,
2018-02-24 16:24:00,56.6,40.1,30.19,WNW,292,4.0,5.0,54,0.00,,,0.00,Wunderground v.1.15,2018-02-25 00:24:00,
2018-02-24 16:34:00,56.3,41.3,30.19,West,263,5.0,7.0,57,0.00,,,0.00,Wunderground v.1.15,2018-02-25 00:34:00,
2018-02-24 16:44:00,56.6,41.1,30.19,West,265,5.0,5.0,56,0.00,,,0.00,Wunderground v.1.15,2018-02-25 00:44:00,
2018-02-24 16:54:00,56.8,40.3,30.19,West,281,4.0,4.0,54,0.00,,,0.00,Wunderground v.1.15,2018-02-25 00:54:00,
2018-02-24 17:04:00,56.6,39.7,30.18,WNW,298,3.0,4.0,53,0.00,,,0.00,Wunderground v.1.15,2018-02-25 01:04:00,
2018-02-24 17:14:00,56.3,40.3,30.18,West,276,3.0,3.0,55,0.00,,,0.00,Wunderground v.1.15,2018-02-25 01:14:00,
2018-02-24 17:24:00,56.0,38.1,30.18,West,268,2.0,4.0,51,0.00,,,0.00,Wunderground v.1.15,2018-02-25 01:24:00,
2018-02-24 17:34:00,55.5,35.0,30.17,WNW,296,3.0,3.0,46,0.00,,,0.00,Wunderground v.1.15,2018-02-25 01:34:00,
2018-02-24 17:44:00,54.9,33.9,30.17,NW,306,2.0,2.0,45,0.00,,,0.00,Wunderground v.1.15,2018-02-25 01:44:00,
2018-02-24 17:54:00,54.5,34.1,30.17,WNW,284,1.0,1.0,46,0.00,,,0.00,Wunderground v.1.15,2018-02-25 01:54:00,
2018-02-24 18:04:00,54.2,35.9,30.18,WNW,284,0.0,0.0,50,0.00,,,0.00,Wunderground v.1.15,2018-02-25 02:04:00,
2018-02-24 18:14:00,53.9,37.1,30.18,WNW,296,0.0,0.0,53,0.00,,,0.00,Wunderground v.1.15,2018-02-25 02:14:00,
2018-02-24 18:24:00,53.5,37.7,30.18,NNW,345,0.0,0.0,55,0.00,,,0.00,Wunderground v.1.15,2018-02-25 02:24:00,
2018-02-24 18:34:00,53.1,37.8,30.19,NNW,345,0.0,0.0,56,0.00,,,0.00,Wunderground v.1.15,2018-02-25 02:34:00,
2018-02-24 18:44:00,52.9,38.1,30.19,NNW,346,0.0,0.0,57,0.00,,,0.00,Wunderground v.1.15,2018-02-25 02:44:00,
2018-02-24 18:54:00,52.4,37.2,30.18,NNW,346,0.0,0.0,56,0.00,,,0.00,Wunderground v.1.15,2018-02-25 02:54:00,
2018-02-24 19:04:00,52.1,35.9,30.18,NNW,346,0.0,0.0,54,0.00,,,0.00,Wunderground v.1.15,2018-02-25 03:04:00,
2018-02-24 19:14:00,52.2,36.5,30.18,NNE,17,0.0,0.0,55,0.00,,,0.00,Wunderground v.1.15,2018-02-25 03:14:00,
2018-02-24 19:24:00,52.0,36.3,30.19,NNE,17,0.0,0.0,55,0.00,,,0.00,Wunderground v.1.15,2018-02-25 03:24:00,
2018-02-24 19:34:00,51.7,36.5,30.19,NNE,22,0.0,0.0,56,0.00,,,0.00,Wunderground v.1.15,2018-02-25 03:34:00,
2018-02-24 19:44:00,51.8,36.6,30.19,NNE,22,1.0,4.0,56,0.00,,,0.00,Wunderground v.1.15,2018-02-25 03:44:00,
2018-02-24 19:54:00,52.0,36.8,30.19,NE,39,2.0,2.0,56,0.00,,,0.00,Wunderground v.1.15,2018-02-25 03:54:00,
2018-02-24 20:04:00,51.8,36.6,30.19,NE,37,2.0,2.0,56,0.00,,,0.00,Wunderground v.1.15,2018-02-25 04:04:00,
2018-02-24 20:14:00,51.6,36.9,30.19,NNE,30,1.0,1.0,57,0.00,,,0.00,Wunderground v.1.15,2018-02-25 04:14:00,
2018-02-24 20:24:00,51.3,36.6,30.19,NNE,18,0.0,0.0,57,0.00,,,0.00,Wunderground v.1.15,2018-02-25 04:24:00,
2018-02-24 20:34:00,51.3,36.6,30.19,NNE,22,1.0,1.0,57,0.00,,,0.00,Wunderground v.1.15,2018-02-25 04:34:00,
2018-02-24 20:44:00,51.2,36.9,30.19,North,355,1.0,1.0,58,0.00,,,0.00,Wunderground v.1.15,2018-02-25 04:44:00,
2018-02-24 20:54:00,50.6,36.8,30.18,North,355,0.0,0.0,59,0.00,,,0.00,Wunderground v.1.15,2018-02-25 04:54:00,
2018-02-24 21:04:00,50.3,36.9,30.19,NNE,22,0.0,0.0,60,0.00,,,0.00,Wunderground v.1.15,2018-02-25 05:04:00,
2018-02-24 21:14:00,48.5,35.2,30.19,ESE,108,0.0,0.0,60,0.00,,,0.00,Wunderground v.1.15,2018-02-25 05:14:00,
2018-02-24 21:24:00,47.4,35.4,30.18,ESE,102,1.0,1.0,63,0.00,,,0.00,Wunderground v.1.15,2018-02-25 05:24:00,
2018-02-24 21:34:00,47.1,35.1,30.18,East,101,0.0,0.0,63,0.00,,,0.00,Wunderground v.1.15,2018-02-25 05:34:00,
2018-02-24 21:44:00,46.6,35.1,30.18,ESE,109,0.0,2.0,64,0.00,,,0.00,Wunderground v.1.15,2018-02-25 05:44:00,
2018-02-24 21:54:00,45.9,34.0,30.18,ESE,113,1.0,1.0,63,0.00,,,0.00,Wunderground v.1.15,2018-02-25 05:54:00,
2018-02-24 22:04:00,45.2,33.7,30.17,ESE,110,1.0,3.0,64,0.00,,,0.00,Wunderground v.1.15,2018-02-25 06:04:00,